Terminal Aerodrome Forecast
Issued by NWS Spokane, WA

Home | Current Version | Previous Version | Text Only | Print | Product List | Glossary On
Versions: 1 2 3 4 5 6 7 8 9 10 11 12 13 14 15 16 17 18 19 20 21 22
000
FTUS46 KOTX 142340
TAFGEG
TAF
KGEG 142340Z 1500/1524 03005KT 3SM -SNDZ BR OVC006
     FM150600 01004KT 1/2SM -SNDZ FZFG OVC002
     FM151800 19004KT 1SM -SN BR BKN004 OVC008=

USA.gov is the U.S. government's official web portal to all federal, state and local government web resources and services.